sensor_id;sensor_type;location;lat;lon;timestamp;P1;durP1;ratioP1;P2;durP2;ratioP2
70102;SDS011;57470;50.034;15.256;2022-12-15T00:02:23;6.05;;;3.00;;
70102;SDS011;57470;50.034;15.256;2022-12-15T00:05:07;14.10;;;3.70;;
70102;SDS011;57470;50.034;15.256;2022-12-15T00:07:51;7.72;;;4.45;;
70102;SDS011;57470;50.034;15.256;2022-12-15T00:10:35;12.07;;;4.35;;
70102;SDS011;57470;50.034;15.256;2022-12-15T00:13:20;5.63;;;2.72;;
70102;SDS011;57470;50.034;15.256;2022-12-15T00:16:04;10.23;;;3.95;;
70102;SDS011;57470;50.034;15.256;2022-12-15T00:18:49;11.60;;;5.80;;
70102;SDS011;57470;50.034;15.256;2022-12-15T00:21:33;9.68;;;4.70;;
70102;SDS011;57470;50.034;15.256;2022-12-15T00:24:17;11.27;;;7.00;;
70102;SDS011;57470;50.034;15.256;2022-12-15T00:27:01;9.98;;;5.45;;
70102;SDS011;57470;50.034;15.256;2022-12-15T00:29:45;12.77;;;5.28;;
70102;SDS011;57470;50.034;15.256;2022-12-15T00:32:29;9.75;;;3.97;;
70102;SDS011;57470;50.034;15.256;2022-12-15T00:35:13;10.63;;;5.03;;
70102;SDS011;57470;50.034;15.256;2022-12-15T00:37:57;8.43;;;3.97;;
70102;SDS011;57470;50.034;15.256;2022-12-15T00:40:49;4.32;;;2.50;;
70102;SDS011;57470;50.034;15.256;2022-12-15T00:43:15;11.68;;;6.55;;
70102;SDS011;57470;50.034;15.256;2022-12-15T00:45:40;7.15;;;3.83;;
70102;SDS011;57470;50.034;15.256;2022-12-15T00:48:24;10.00;;;5.70;;
70102;SDS011;57470;50.034;15.256;2022-12-15T00:50:50;12.10;;;3.17;;
70102;SDS011;57470;50.034;15.256;2022-12-15T00:53:22;9.07;;;4.95;;
70102;SDS011;57470;50.034;15.256;2022-12-15T00:56:07;8.40;;;4.10;;
70102;SDS011;57470;50.034;15.256;2022-12-15T00:58:52;8.68;;;5.10;;
70102;SDS011;57470;50.034;15.256;2022-12-15T01:01:36;11.60;;;5.25;;
70102;SDS011;57470;50.034;15.256;2022-12-15T01:04:20;8.43;;;4.88;;
70102;SDS011;57470;50.034;15.256;2022-12-15T01:07:04;10.68;;;4.93;;
70102;SDS011;57470;50.034;15.256;2022-12-15T01:09:48;7.35;;;4.53;;
70102;SDS011;57470;50.034;15.256;2022-12-15T01:12:32;8.50;;;4.10;;
70102;SDS011;57470;50.034;15.256;2022-12-15T01:15:17;15.25;;;5.60;;
70102;SDS011;57470;50.034;15.256;2022-12-15T01:18:01;11.50;;;4.38;;
70102;SDS011;57470;50.034;15.256;2022-12-15T01:20:53;9.88;;;4.40;;
70102;SDS011;57470;50.034;15.256;2022-12-15T01:23:30;7.85;;;3.70;;
70102;SDS011;57470;50.034;15.256;2022-12-15T01:25:56;12.45;;;4.63;;
70102;SDS011;57470;50.034;15.256;2022-12-15T01:28:22;4.87;;;2.70;;
70102;SDS011;57470;50.034;15.256;2022-12-15T01:30:48;14.88;;;6.07;;
70102;SDS011;57470;50.034;15.256;2022-12-15T01:33:14;9.50;;;3.85;;
70102;SDS011;57470;50.034;15.256;2022-12-15T01:35:40;10.48;;;4.68;;
70102;SDS011;57470;50.034;15.256;2022-12-15T01:38:06;8.30;;;3.83;;
70102;SDS011;57470;50.034;15.256;2022-12-15T01:40:32;11.07;;;5.28;;
70102;SDS011;57470;50.034;15.256;2022-12-15T01:43:12;8.02;;;4.05;;
70102;SDS011;57470;50.034;15.256;2022-12-15T01:53:23;6.07;;;2.45;;
70102;SDS011;57470;50.034;15.256;2022-12-15T01:55:51;14.20;;;6.53;;
70102;SDS011;57470;50.034;15.256;2022-12-15T01:58:17;17.10;;;4.65;;
70102;SDS011;57470;50.034;15.256;2022-12-15T02:00:44;7.25;;;3.95;;
70102;SDS011;57470;50.034;15.256;2022-12-15T02:03:10;13.03;;;4.03;;
70102;SDS011;57470;50.034;15.256;2022-12-15T02:05:37;6.55;;;2.80;;
70102;SDS011;57470;50.034;15.256;2022-12-15T02:08:03;8.95;;;4.63;;
70102;SDS011;57470;50.034;15.256;2022-12-15T02:10:39;14.32;;;5.10;;
70102;SDS011;57470;50.034;15.256;2022-12-15T02:13:30;12.85;;;3.05;;
70102;SDS011;57470;50.034;15.256;2022-12-15T02:16:07;7.65;;;2.83;;
70102;SDS011;57470;50.034;15.256;2022-12-15T02:21:28;8.02;;;3.08;;
70102;SDS011;57470;50.034;15.256;2022-12-15T02:32:14;7.05;;;2.92;;
70102;SDS011;57470;50.034;15.256;2022-12-15T02:34:52;6.10;;;3.42;;
70102;SDS011;57470;50.034;15.256;2022-12-15T02:37:33;7.22;;;3.90;;
70102;SDS011;57470;50.034;15.256;2022-12-15T02:40:01;7.25;;;2.20;;
70102;SDS011;57470;50.034;15.256;2022-12-15T02:42:27;14.40;;;4.47;;
70102;SDS011;57470;50.034;15.256;2022-12-15T02:53:36;5.18;;;2.50;;
70102;SDS011;57470;50.034;15.256;2022-12-15T02:59:02;7.07;;;3.50;;
70102;SDS011;57470;50.034;15.256;2022-12-15T03:04:16;3.35;;;1.75;;
70102;SDS011;57470;50.034;15.256;2022-12-15T03:06:43;8.38;;;3.75;;
70102;SDS011;57470;50.034;15.256;2022-12-15T03:09:10;8.10;;;2.45;;
70102;SDS011;57470;50.034;15.256;2022-12-15T03:11:36;10.63;;;3.60;;
70102;SDS011;57470;50.034;15.256;2022-12-15T03:14:03;12.98;;;4.57;;
70102;SDS011;57470;50.034;15.256;2022-12-15T03:16:30;7.95;;;3.47;;
70102;SDS011;57470;50.034;15.256;2022-12-15T03:18:56;7.65;;;4.22;;
70102;SDS011;57470;50.034;15.256;2022-12-15T03:21:22;10.60;;;5.30;;
70102;SDS011;57470;50.034;15.256;2022-12-15T03:23:47;11.90;;;3.53;;
70102;SDS011;57470;50.034;15.256;2022-12-15T03:26:12;5.40;;;2.13;;
70102;SDS011;57470;50.034;15.256;2022-12-15T03:28:38;10.23;;;3.47;;
70102;SDS011;57470;50.034;15.256;2022-12-15T03:31:03;8.80;;;4.50;;
70102;SDS011;57470;50.034;15.256;2022-12-15T03:33:30;13.07;;;5.00;;
70102;SDS011;57470;50.034;15.256;2022-12-15T03:35:56;11.10;;;3.17;;
70102;SDS011;57470;50.034;15.256;2022-12-15T03:38:22;9.40;;;3.30;;
70102;SDS011;57470;50.034;15.256;2022-12-15T03:40:47;6.87;;;2.87;;
70102;SDS011;57470;50.034;15.256;2022-12-15T03:43:13;9.33;;;3.83;;
70102;SDS011;57470;50.034;15.256;2022-12-15T03:45:38;13.90;;;5.25;;
70102;SDS011;57470;50.034;15.256;2022-12-15T03:48:03;4.67;;;1.97;;
70102;SDS011;57470;50.034;15.256;2022-12-15T03:50:29;10.97;;;3.57;;
70102;SDS011;57470;50.034;15.256;2022-12-15T03:52:58;6.97;;;3.43;;
70102;SDS011;57470;50.034;15.256;2022-12-15T03:55:26;6.35;;;2.45;;
70102;SDS011;57470;50.034;15.256;2022-12-15T03:57:54;7.75;;;3.13;;
70102;SDS011;57470;50.034;15.256;2022-12-15T04:00:20;8.85;;;4.95;;
70102;SDS011;57470;50.034;15.256;2022-12-15T04:02:47;12.63;;;4.13;;
70102;SDS011;57470;50.034;15.256;2022-12-15T04:05:14;5.82;;;3.85;;
70102;SDS011;57470;50.034;15.256;2022-12-15T04:07:43;4.97;;;2.35;;
70102;SDS011;57470;50.034;15.256;2022-12-15T04:10:09;11.00;;;6.50;;
70102;SDS011;57470;50.034;15.256;2022-12-15T04:12:34;8.75;;;5.88;;
70102;SDS011;57470;50.034;15.256;2022-12-15T04:15:03;13.38;;;5.47;;
70102;SDS011;57470;50.034;15.256;2022-12-15T04:17:33;10.98;;;4.13;;
70102;SDS011;57470;50.034;15.256;2022-12-15T04:19:58;10.23;;;4.43;;
70102;SDS011;57470;50.034;15.256;2022-12-15T04:22:34;17.73;;;4.83;;
70102;SDS011;57470;50.034;15.256;2022-12-15T04:25:03;9.65;;;4.22;;
70102;SDS011;57470;50.034;15.256;2022-12-15T04:27:48;9.18;;;4.13;;
70102;SDS011;57470;50.034;15.256;2022-12-15T04:30:32;16.08;;;4.95;;
70102;SDS011;57470;50.034;15.256;2022-12-15T04:33:16;7.45;;;3.67;;
70102;SDS011;57470;50.034;15.256;2022-12-15T04:36:00;12.10;;;4.77;;
70102;SDS011;57470;50.034;15.256;2022-12-15T04:38:45;10.70;;;4.40;;
70102;SDS011;57470;50.034;15.256;2022-12-15T04:41:29;8.23;;;4.22;;
70102;SDS011;57470;50.034;15.256;2022-12-15T04:44:15;10.00;;;3.85;;
70102;SDS011;57470;50.034;15.256;2022-12-15T04:46:59;10.63;;;3.78;;
70102;SDS011;57470;50.034;15.256;2022-12-15T04:49:43;7.30;;;3.27;;
70102;SDS011;57470;50.034;15.256;2022-12-15T04:52:27;9.57;;;3.97;;
70102;SDS011;57470;50.034;15.256;2022-12-15T04:55:11;7.30;;;3.05;;
70102;SDS011;57470;50.034;15.256;2022-12-15T04:57:55;7.72;;;3.95;;
70102;SDS011;57470;50.034;15.256;2022-12-15T05:00:39;8.80;;;4.43;;
70102;SDS011;57470;50.034;15.256;2022-12-15T05:03:23;4.93;;;2.97;;
70102;SDS011;57470;50.034;15.256;2022-12-15T05:06:07;6.70;;;2.35;;
70102;SDS011;57470;50.034;15.256;2022-12-15T05:08:51;7.75;;;3.50;;
70102;SDS011;57470;50.034;15.256;2022-12-15T05:11:35;7.88;;;4.43;;
70102;SDS011;57470;50.034;15.256;2022-12-15T05:14:19;11.25;;;2.15;;
70102;SDS011;57470;50.034;15.256;2022-12-15T05:17:03;12.13;;;5.17;;
70102;SDS011;57470;50.034;15.256;2022-12-15T05:19:46;9.13;;;4.85;;
70102;SDS011;57470;50.034;15.256;2022-12-15T05:22:30;11.45;;;5.78;;
70102;SDS011;57470;50.034;15.256;2022-12-15T05:25:15;11.65;;;3.55;;
70102;SDS011;57470;50.034;15.256;2022-12-15T05:27:59;10.52;;;4.28;;
70102;SDS011;57470;50.034;15.256;2022-12-15T05:30:44;7.43;;;3.63;;
70102;SDS011;57470;50.034;15.256;2022-12-15T05:33:28;14.75;;;5.70;;
70102;SDS011;57470;50.034;15.256;2022-12-15T05:35:57;9.70;;;5.60;;
70102;SDS011;57470;50.034;15.256;2022-12-15T05:38:23;12.13;;;4.07;;
70102;SDS011;57470;50.034;15.256;2022-12-15T05:40:48;10.13;;;5.97;;
70102;SDS011;57470;50.034;15.256;2022-12-15T05:43:13;5.67;;;2.43;;
70102;SDS011;57470;50.034;15.256;2022-12-15T05:45:39;9.53;;;4.07;;
70102;SDS011;57470;50.034;15.256;2022-12-15T05:48:04;7.50;;;3.93;;
70102;SDS011;57470;50.034;15.256;2022-12-15T05:50:30;9.32;;;4.45;;
70102;SDS011;57470;50.034;15.256;2022-12-15T05:52:56;11.33;;;6.03;;
70102;SDS011;57470;50.034;15.256;2022-12-15T05:55:22;13.57;;;5.40;;
70102;SDS011;57470;50.034;15.256;2022-12-15T05:57:51;12.43;;;4.60;;
70102;SDS011;57470;50.034;15.256;2022-12-15T06:00:17;30.63;;;4.80;;
70102;SDS011;57470;50.034;15.256;2022-12-15T06:02:43;5.15;;;3.30;;
70102;SDS011;57470;50.034;15.256;2022-12-15T06:05:09;11.13;;;3.80;;
70102;SDS011;57470;50.034;15.256;2022-12-15T06:07:34;10.23;;;7.70;;
70102;SDS011;57470;50.034;15.256;2022-12-15T06:10:01;15.32;;;7.18;;
70102;SDS011;57470;50.034;15.256;2022-12-15T06:12:27;13.57;;;6.55;;
70102;SDS011;57470;50.034;15.256;2022-12-15T06:14:53;16.00;;;8.67;;
70102;SDS011;57470;50.034;15.256;2022-12-15T06:17:18;19.90;;;7.23;;
70102;SDS011;57470;50.034;15.256;2022-12-15T06:19:43;11.93;;;4.60;;
70102;SDS011;57470;50.034;15.256;2022-12-15T06:22:09;25.40;;;4.65;;
70102;SDS011;57470;50.034;15.256;2022-12-15T06:24:34;12.93;;;4.55;;
70102;SDS011;57470;50.034;15.256;2022-12-15T06:27:00;7.80;;;4.27;;
70102;SDS011;57470;50.034;15.256;2022-12-15T06:29:25;14.23;;;4.20;;
70102;SDS011;57470;50.034;15.256;2022-12-15T06:31:50;7.23;;;4.10;;
70102;SDS011;57470;50.034;15.256;2022-12-15T06:34:16;12.93;;;4.73;;
70102;SDS011;57470;50.034;15.256;2022-12-15T06:36:42;7.38;;;3.03;;
70102;SDS011;57470;50.034;15.256;2022-12-15T06:39:09;11.20;;;4.38;;
70102;SDS011;57470;50.034;15.256;2022-12-15T06:41:36;8.18;;;3.70;;
70102;SDS011;57470;50.034;15.256;2022-12-15T06:44:02;17.52;;;4.53;;
70102;SDS011;57470;50.034;15.256;2022-12-15T06:46:29;16.38;;;3.88;;
70102;SDS011;57470;50.034;15.256;2022-12-15T06:48:56;9.25;;;3.65;;
70102;SDS011;57470;50.034;15.256;2022-12-15T06:51:22;20.73;;;4.43;;
70102;SDS011;57470;50.034;15.256;2022-12-15T06:53:48;6.75;;;4.00;;
70102;SDS011;57470;50.034;15.256;2022-12-15T06:58:57;5.68;;;3.17;;
70102;SDS011;57470;50.034;15.256;2022-12-15T07:01:23;11.48;;;4.10;;
70102;SDS011;57470;50.034;15.256;2022-12-15T07:03:52;12.85;;;4.97;;
70102;SDS011;57470;50.034;15.256;2022-12-15T07:06:18;14.05;;;4.75;;
70102;SDS011;57470;50.034;15.256;2022-12-15T07:08:49;7.90;;;4.37;;
70102;SDS011;57470;50.034;15.256;2022-12-15T07:11:20;9.75;;;3.83;;
70102;SDS011;57470;50.034;15.256;2022-12-15T07:13:47;9.55;;;3.33;;
70102;SDS011;57470;50.034;15.256;2022-12-15T07:16:14;7.73;;;4.23;;
70102;SDS011;57470;50.034;15.256;2022-12-15T07:18:39;11.30;;;3.83;;
70102;SDS011;57470;50.034;15.256;2022-12-15T07:21:08;8.73;;;3.97;;
70102;SDS011;57470;50.034;15.256;2022-12-15T07:23:39;20.20;;;6.03;;
70102;SDS011;57470;50.034;15.256;2022-12-15T07:26:05;8.98;;;2.95;;
70102;SDS011;57470;50.034;15.256;2022-12-15T07:28:33;6.35;;;3.05;;
70102;SDS011;57470;50.034;15.256;2022-12-15T07:31:03;6.80;;;3.42;;
70102;SDS011;57470;50.034;15.256;2022-12-15T07:33:31;10.02;;;4.72;;
70102;SDS011;57470;50.034;15.256;2022-12-15T07:35:58;8.80;;;3.50;;
70102;SDS011;57470;50.034;15.256;2022-12-15T07:38:23;10.30;;;3.08;;
70102;SDS011;57470;50.034;15.256;2022-12-15T07:40:49;10.60;;;4.63;;
70102;SDS011;57470;50.034;15.256;2022-12-15T07:43:14;8.27;;;5.22;;
70102;SDS011;57470;50.034;15.256;2022-12-15T07:45:40;10.65;;;2.83;;
70102;SDS011;57470;50.034;15.256;2022-12-15T07:48:06;11.87;;;3.20;;
70102;SDS011;57470;50.034;15.256;2022-12-15T07:50:31;11.90;;;4.43;;
70102;SDS011;57470;50.034;15.256;2022-12-15T07:52:56;6.40;;;3.30;;
70102;SDS011;57470;50.034;15.256;2022-12-15T07:55:22;37.93;;;4.70;;
70102;SDS011;57470;50.034;15.256;2022-12-15T07:57:47;9.07;;;4.33;;
70102;SDS011;57470;50.034;15.256;2022-12-15T08:00:13;7.40;;;4.13;;
70102;SDS011;57470;50.034;15.256;2022-12-15T08:02:40;8.48;;;3.53;;
70102;SDS011;57470;50.034;15.256;2022-12-15T08:05:06;7.38;;;3.33;;
70102;SDS011;57470;50.034;15.256;2022-12-15T08:07:32;11.13;;;5.07;;
70102;SDS011;57470;50.034;15.256;2022-12-15T08:09:57;14.67;;;4.17;;
70102;SDS011;57470;50.034;15.256;2022-12-15T08:12:23;5.73;;;2.63;;
70102;SDS011;57470;50.034;15.256;2022-12-15T08:14:57;10.53;;;4.20;;
70102;SDS011;57470;50.034;15.256;2022-12-15T08:17:26;11.00;;;5.57;;
70102;SDS011;57470;50.034;15.256;2022-12-15T08:19:51;13.40;;;6.40;;
70102;SDS011;57470;50.034;15.256;2022-12-15T08:22:17;10.68;;;4.15;;
70102;SDS011;57470;50.034;15.256;2022-12-15T08:24:42;10.47;;;3.47;;
70102;SDS011;57470;50.034;15.256;2022-12-15T08:27:07;10.70;;;4.73;;
70102;SDS011;57470;50.034;15.256;2022-12-15T08:29:33;8.77;;;5.53;;
70102;SDS011;57470;50.034;15.256;2022-12-15T08:31:59;14.82;;;6.53;;
70102;SDS011;57470;50.034;15.256;2022-12-15T08:34:25;14.57;;;7.40;;
70102;SDS011;57470;50.034;15.256;2022-12-15T08:36:50;5.53;;;2.97;;
70102;SDS011;57470;50.034;15.256;2022-12-15T08:39:16;7.40;;;3.83;;
70102;SDS011;57470;50.034;15.256;2022-12-15T08:41:42;16.37;;;5.53;;
70102;SDS011;57470;50.034;15.256;2022-12-15T08:44:07;10.35;;;5.47;;
70102;SDS011;57470;50.034;15.256;2022-12-15T08:46:33;11.20;;;4.67;;
70102;SDS011;57470;50.034;15.256;2022-12-15T08:49:00;7.93;;;4.45;;
70102;SDS011;57470;50.034;15.256;2022-12-15T08:51:27;7.10;;;3.47;;
70102;SDS011;57470;50.034;15.256;2022-12-15T08:53:54;11.57;;;5.37;;
70102;SDS011;57470;50.034;15.256;2022-12-15T08:56:21;11.77;;;4.40;;
70102;SDS011;57470;50.034;15.256;2022-12-15T08:58:47;16.98;;;5.93;;
70102;SDS011;57470;50.034;15.256;2022-12-15T09:01:15;12.15;;;4.82;;
70102;SDS011;57470;50.034;15.256;2022-12-15T09:03:43;15.70;;;7.30;;
70102;SDS011;57470;50.034;15.256;2022-12-15T09:06:12;14.13;;;5.17;;
70102;SDS011;57470;50.034;15.256;2022-12-15T09:08:40;12.68;;;5.75;;
70102;SDS011;57470;50.034;15.256;2022-12-15T09:11:06;16.33;;;5.70;;
70102;SDS011;57470;50.034;15.256;2022-12-15T09:13:32;16.23;;;6.47;;
70102;SDS011;57470;50.034;15.256;2022-12-15T09:15:58;14.77;;;5.60;;
70102;SDS011;57470;50.034;15.256;2022-12-15T09:18:24;12.20;;;6.40;;
70102;SDS011;57470;50.034;15.256;2022-12-15T09:20:50;13.65;;;6.28;;
70102;SDS011;57470;50.034;15.256;2022-12-15T09:23:16;23.70;;;7.40;;
70102;SDS011;57470;50.034;15.256;2022-12-15T09:25:41;29.30;;;7.75;;
70102;SDS011;57470;50.034;15.256;2022-12-15T09:28:06;12.97;;;6.37;;
70102;SDS011;57470;50.034;15.256;2022-12-15T09:30:32;30.50;;;9.67;;
70102;SDS011;57470;50.034;15.256;2022-12-15T09:32:57;16.43;;;7.23;;
70102;SDS011;57470;50.034;15.256;2022-12-15T09:35:25;23.02;;;7.32;;
70102;SDS011;57470;50.034;15.256;2022-12-15T09:37:51;23.97;;;7.73;;
70102;SDS011;57470;50.034;15.256;2022-12-15T09:40:17;18.15;;;7.75;;
70102;SDS011;57470;50.034;15.256;2022-12-15T09:42:44;15.88;;;7.55;;
70102;SDS011;57470;50.034;15.256;2022-12-15T09:45:20;19.70;;;7.13;;
70102;SDS011;57470;50.034;15.256;2022-12-15T09:47:56;17.55;;;7.47;;
70102;SDS011;57470;50.034;15.256;2022-12-15T09:50:26;4.73;;;2.73;;
70102;SDS011;57470;50.034;15.256;2022-12-15T09:52:58;15.23;;;5.15;;
70102;SDS011;57470;50.034;15.256;2022-12-15T09:55:28;18.65;;;7.20;;
70102;SDS011;57470;50.034;15.256;2022-12-15T10:00:39;15.10;;;7.55;;
70102;SDS011;57470;50.034;15.256;2022-12-15T10:05:56;22.90;;;7.75;;
70102;SDS011;57470;50.034;15.256;2022-12-15T10:08:23;22.20;;;7.38;;
70102;SDS011;57470;50.034;15.256;2022-12-15T10:10:56;13.70;;;6.50;;
70102;SDS011;57470;50.034;15.256;2022-12-15T10:13:28;18.70;;;7.82;;
70102;SDS011;57470;50.034;15.256;2022-12-15T10:16:02;15.33;;;7.00;;
70102;SDS011;57470;50.034;15.256;2022-12-15T10:18:39;21.60;;;8.20;;
70102;SDS011;57470;50.034;15.256;2022-12-15T10:21:14;17.02;;;7.50;;
70102;SDS011;57470;50.034;15.256;2022-12-15T10:23:39;16.60;;;6.63;;
70102;SDS011;57470;50.034;15.256;2022-12-15T10:28:53;16.02;;;6.35;;
70102;SDS011;57470;50.034;15.256;2022-12-15T10:31:34;19.67;;;6.38;;
70102;SDS011;57470;50.034;15.256;2022-12-15T10:34:11;16.23;;;6.63;;
70102;SDS011;57470;50.034;15.256;2022-12-15T10:36:48;15.07;;;5.95;;
70102;SDS011;57470;50.034;15.256;2022-12-15T10:39:15;21.45;;;8.32;;
70102;SDS011;57470;50.034;15.256;2022-12-15T10:41:41;27.20;;;9.20;;
70102;SDS011;57470;50.034;15.256;2022-12-15T10:44:20;15.98;;;6.85;;
70102;SDS011;57470;50.034;15.256;2022-12-15T10:46:53;27.75;;;8.10;;
70102;SDS011;57470;50.034;15.256;2022-12-15T10:49:21;22.90;;;9.02;;
70102;SDS011;57470;50.034;15.256;2022-12-15T10:54:21;19.77;;;8.73;;
70102;SDS011;57470;50.034;15.256;2022-12-15T10:56:52;24.30;;;9.13;;
70102;SDS011;57470;50.034;15.256;2022-12-15T10:59:32;26.80;;;10.13;;
70102;SDS011;57470;50.034;15.256;2022-12-15T11:07:49;29.23;;;12.57;;
70102;SDS011;57470;50.034;15.256;2022-12-15T11:13:21;31.52;;;13.48;;
70102;SDS011;57470;50.034;15.256;2022-12-15T11:15:50;18.00;;;8.55;;
70102;SDS011;57470;50.034;15.256;2022-12-15T11:32:10;38.97;;;13.63;;
70102;SDS011;57470;50.034;15.256;2022-12-15T11:34:38;39.95;;;16.58;;
70102;SDS011;57470;50.034;15.256;2022-12-15T11:43:00;22.95;;;9.85;;
70102;SDS011;57470;50.034;15.256;2022-12-15T12:00:18;25.30;;;10.57;;
70102;SDS011;57470;50.034;15.256;2022-12-15T12:08:39;19.83;;;10.68;;
70102;SDS011;57470;50.034;15.256;2022-12-15T12:11:18;19.27;;;8.55;;
70102;SDS011;57470;50.034;15.256;2022-12-15T12:19:01;20.98;;;8.35;;
70102;SDS011;57470;50.034;15.256;2022-12-15T12:21:38;26.52;;;7.00;;
70102;SDS011;57470;50.034;15.256;2022-12-15T12:27:02;11.30;;;6.80;;
70102;SDS011;57470;50.034;15.256;2022-12-15T12:29:33;21.10;;;7.95;;
70102;SDS011;57470;50.034;15.256;2022-12-15T12:34:50;15.40;;;6.25;;
70102;SDS011;57470;50.034;15.256;2022-12-15T12:37:21;16.08;;;7.25;;
70102;SDS011;57470;50.034;15.256;2022-12-15T12:39:55;11.52;;;6.03;;
70102;SDS011;57470;50.034;15.256;2022-12-15T12:42:33;18.02;;;9.02;;
70102;SDS011;57470;50.034;15.256;2022-12-15T12:45:04;15.15;;;6.50;;
70102;SDS011;57470;50.034;15.256;2022-12-15T12:47:32;13.18;;;5.53;;
70102;SDS011;57470;50.034;15.256;2022-12-15T12:50:13;10.88;;;5.05;;
70102;SDS011;57470;50.034;15.256;2022-12-15T12:52:41;15.35;;;8.18;;
70102;SDS011;57470;50.034;15.256;2022-12-15T12:57:41;17.43;;;6.27;;
70102;SDS011;57470;50.034;15.256;2022-12-15T13:00:18;16.25;;;9.07;;
70102;SDS011;57470;50.034;15.256;2022-12-15T13:10:20;14.40;;;5.93;;
70102;SDS011;57470;50.034;15.256;2022-12-15T13:12:48;30.83;;;7.97;;
70102;SDS011;57470;50.034;15.256;2022-12-15T13:15:36;16.42;;;7.90;;
70102;SDS011;57470;50.034;15.256;2022-12-15T13:18:06;13.75;;;5.10;;
70102;SDS011;57470;50.034;15.256;2022-12-15T13:20:49;11.00;;;6.30;;
70102;SDS011;57470;50.034;15.256;2022-12-15T13:41:35;10.55;;;5.13;;
70102;SDS011;57470;50.034;15.256;2022-12-15T13:44:01;14.88;;;5.88;;
70102;SDS011;57470;50.034;15.256;2022-12-15T13:46:43;12.60;;;4.30;;
70102;SDS011;57470;50.034;15.256;2022-12-15T13:49:16;16.60;;;4.50;;
70102;SDS011;57470;50.034;15.256;2022-12-15T13:52:11;9.43;;;4.68;;
70102;SDS011;57470;50.034;15.256;2022-12-15T13:54:41;9.43;;;3.78;;
70102;SDS011;57470;50.034;15.256;2022-12-15T13:57:14;11.18;;;4.75;;
70102;SDS011;57470;50.034;15.256;2022-12-15T13:59:48;9.93;;;4.33;;
70102;SDS011;57470;50.034;15.256;2022-12-15T14:02:22;10.57;;;3.88;;
70102;SDS011;57470;50.034;15.256;2022-12-15T14:07:42;11.80;;;4.00;;
70102;SDS011;57470;50.034;15.256;2022-12-15T14:10:28;11.52;;;5.38;;
70102;SDS011;57470;50.034;15.256;2022-12-15T14:13:00;7.63;;;4.57;;
70102;SDS011;57470;50.034;15.256;2022-12-15T14:15:32;11.63;;;3.53;;
70102;SDS011;57470;50.034;15.256;2022-12-15T14:17:59;9.55;;;4.45;;
70102;SDS011;57470;50.034;15.256;2022-12-15T14:20:27;7.93;;;4.40;;
70102;SDS011;57470;50.034;15.256;2022-12-15T14:22:55;13.00;;;2.93;;
70102;SDS011;57470;50.034;15.256;2022-12-15T14:25:28;11.15;;;5.35;;
70102;SDS011;57470;50.034;15.256;2022-12-15T14:27:54;12.07;;;5.57;;
70102;SDS011;57470;50.034;15.256;2022-12-15T14:30:27;8.20;;;4.82;;
70102;SDS011;57470;50.034;15.256;2022-12-15T14:33:05;7.53;;;3.75;;
70102;SDS011;57470;50.034;15.256;2022-12-15T14:35:37;7.97;;;3.57;;
70102;SDS011;57470;50.034;15.256;2022-12-15T14:38:06;9.25;;;3.38;;
70102;SDS011;57470;50.034;15.256;2022-12-15T14:40:37;8.07;;;3.58;;
70102;SDS011;57470;50.034;15.256;2022-12-15T14:43:04;9.68;;;5.07;;
70102;SDS011;57470;50.034;15.256;2022-12-15T14:45:34;19.58;;;7.07;;
70102;SDS011;57470;50.034;15.256;2022-12-15T14:48:01;12.90;;;4.07;;
70102;SDS011;57470;50.034;15.256;2022-12-15T14:50:30;9.77;;;5.68;;
70102;SDS011;57470;50.034;15.256;2022-12-15T14:52:58;19.27;;;9.17;;
70102;SDS011;57470;50.034;15.256;2022-12-15T14:57:58;14.82;;;4.95;;
70102;SDS011;57470;50.034;15.256;2022-12-15T15:03:07;8.10;;;4.37;;
70102;SDS011;57470;50.034;15.256;2022-12-15T15:05:38;8.63;;;4.07;;
70102;SDS011;57470;50.034;15.256;2022-12-15T15:08:05;13.25;;;5.05;;
70102;SDS011;57470;50.034;15.256;2022-12-15T15:10:30;8.27;;;4.47;;
70102;SDS011;57470;50.034;15.256;2022-12-15T15:12:56;7.78;;;5.38;;
70102;SDS011;57470;50.034;15.256;2022-12-15T15:15:23;10.90;;;5.18;;
70102;SDS011;57470;50.034;15.256;2022-12-15T15:17:51;8.05;;;4.65;;
70102;SDS011;57470;50.034;15.256;2022-12-15T15:20:31;13.23;;;4.43;;
70102;SDS011;57470;50.034;15.256;2022-12-15T15:33:17;12.18;;;4.68;;
70102;SDS011;57470;50.034;15.256;2022-12-15T15:35:44;9.40;;;4.27;;
70102;SDS011;57470;50.034;15.256;2022-12-15T15:41:00;5.93;;;2.60;;
70102;SDS011;57470;50.034;15.256;2022-12-15T15:43:36;9.50;;;2.75;;
70102;SDS011;57470;50.034;15.256;2022-12-15T15:46:03;8.90;;;4.70;;
70102;SDS011;57470;50.034;15.256;2022-12-15T15:48:31;4.90;;;2.95;;
70102;SDS011;57470;50.034;15.256;2022-12-15T15:50:59;4.63;;;2.55;;
70102;SDS011;57470;50.034;15.256;2022-12-15T15:53:26;20.33;;;3.20;;
70102;SDS011;57470;50.034;15.256;2022-12-15T15:55:55;4.72;;;3.00;;
70102;SDS011;57470;50.034;15.256;2022-12-15T15:58:22;6.88;;;2.97;;
70102;SDS011;57470;50.034;15.256;2022-12-15T16:00:47;8.63;;;4.53;;
70102;SDS011;57470;50.034;15.256;2022-12-15T16:03:14;6.85;;;3.47;;
70102;SDS011;57470;50.034;15.256;2022-12-15T16:05:40;8.70;;;4.35;;
70102;SDS011;57470;50.034;15.256;2022-12-15T16:08:08;9.82;;;4.75;;
70102;SDS011;57470;50.034;15.256;2022-12-15T16:10:46;7.78;;;4.78;;
70102;SDS011;57470;50.034;15.256;2022-12-15T16:13:16;7.43;;;3.58;;
70102;SDS011;57470;50.034;15.256;2022-12-15T16:15:43;7.60;;;3.55;;
70102;SDS011;57470;50.034;15.256;2022-12-15T16:18:09;5.05;;;2.38;;
70102;SDS011;57470;50.034;15.256;2022-12-15T16:20:36;13.73;;;4.23;;
70102;SDS011;57470;50.034;15.256;2022-12-15T16:23:09;16.55;;;7.07;;
70102;SDS011;57470;50.034;15.256;2022-12-15T16:25:39;3.67;;;2.25;;
70102;SDS011;57470;50.034;15.256;2022-12-15T16:28:18;8.88;;;4.07;;
70102;SDS011;57470;50.034;15.256;2022-12-15T16:30:45;9.25;;;4.45;;
70102;SDS011;57470;50.034;15.256;2022-12-15T16:33:11;11.38;;;7.22;;
70102;SDS011;57470;50.034;15.256;2022-12-15T16:35:37;8.27;;;4.55;;
70102;SDS011;57470;50.034;15.256;2022-12-15T16:38:05;38.10;;;5.88;;
70102;SDS011;57470;50.034;15.256;2022-12-15T16:40:38;9.15;;;4.22;;
70102;SDS011;57470;50.034;15.256;2022-12-15T16:43:08;11.40;;;3.77;;
70102;SDS011;57470;50.034;15.256;2022-12-15T16:45:39;12.82;;;4.45;;
70102;SDS011;57470;50.034;15.256;2022-12-15T16:48:09;7.65;;;4.30;;
70102;SDS011;57470;50.034;15.256;2022-12-15T16:50:37;10.00;;;3.30;;
70102;SDS011;57470;50.034;15.256;2022-12-15T16:53:05;10.57;;;4.30;;
70102;SDS011;57470;50.034;15.256;2022-12-15T16:55:33;11.85;;;3.38;;
70102;SDS011;57470;50.034;15.256;2022-12-15T16:58:04;5.15;;;2.25;;
70102;SDS011;57470;50.034;15.256;2022-12-15T17:00:31;6.85;;;3.70;;
70102;SDS011;57470;50.034;15.256;2022-12-15T17:02:58;10.47;;;3.30;;
70102;SDS011;57470;50.034;15.256;2022-12-15T17:05:34;5.38;;;2.65;;
70102;SDS011;57470;50.034;15.256;2022-12-15T17:08:01;16.33;;;3.35;;
70102;SDS011;57470;50.034;15.256;2022-12-15T17:10:30;10.25;;;5.22;;
70102;SDS011;57470;50.034;15.256;2022-12-15T17:13:19;9.52;;;4.55;;
70102;SDS011;57470;50.034;15.256;2022-12-15T17:15:59;11.53;;;4.40;;
70102;SDS011;57470;50.034;15.256;2022-12-15T17:18:25;6.63;;;3.25;;
70102;SDS011;57470;50.034;15.256;2022-12-15T17:21:02;9.35;;;3.90;;
70102;SDS011;57470;50.034;15.256;2022-12-15T17:23:27;10.38;;;4.60;;
70102;SDS011;57470;50.034;15.256;2022-12-15T17:25:53;8.70;;;3.60;;